createdAt,value
2018-12-11T00:01:48.797Z,2.71
2018-12-11T00:04:30.357Z,2.64
2018-12-11T00:07:12.347Z,2.55
2018-12-11T00:09:54.666Z,2.51
2018-12-11T00:12:36.781Z,2.53
2018-12-11T00:15:18.181Z,2.65
2018-12-11T00:17:59.855Z,2.60
2018-12-11T00:20:41.957Z,2.68
2018-12-11T00:23:24.334Z,2.76
2018-12-11T00:26:06.578Z,2.76
2018-12-11T00:28:49.564Z,2.83
2018-12-11T00:31:31.701Z,2.80
2018-12-11T00:34:14.061Z,2.78
2018-12-11T00:36:55.684Z,2.73
2018-12-11T00:39:38.361Z,2.76
2018-12-11T00:42:20.538Z,2.74
2018-12-11T00:45:02.957Z,2.71
2018-12-11T00:47:45.503Z,2.68
2018-12-11T00:50:27.695Z,2.66
2018-12-11T00:53:09.478Z,2.68
2018-12-11T00:55:51.195Z,2.73
2018-12-11T00:58:33.912Z,2.75
2018-12-11T01:01:16.797Z,2.76
2018-12-11T01:03:58.436Z,2.73
2018-12-11T01:06:40.217Z,2.67
2018-12-11T01:09:22.622Z,2.70
2018-12-11T01:12:04.451Z,2.67
2018-12-11T01:14:46.989Z,2.63
2018-12-11T01:17:29.236Z,2.59
2018-12-11T01:20:11.878Z,2.57
2018-12-11T01:22:54.346Z,2.61
2018-12-11T01:25:36.852Z,2.54
2018-12-11T01:28:19.462Z,2.47
2018-12-11T01:31:02.068Z,2.56
2018-12-11T01:33:44.229Z,2.49
2018-12-11T01:36:25.773Z,2.48
2018-12-11T01:39:08.966Z,2.49
2018-12-11T01:41:50.833Z,2.44
2018-12-11T01:44:33.632Z,2.41
2018-12-11T01:47:16.132Z,2.38
2018-12-11T01:49:58.233Z,2.37
2018-12-11T01:52:39.828Z,2.38
2018-12-11T01:55:21.378Z,2.37
2018-12-11T01:58:03.103Z,2.41
2018-12-11T02:00:45.493Z,2.38
2018-12-11T02:03:27.504Z,2.33
2018-12-11T02:06:09.583Z,2.27
2018-12-11T02:08:51.984Z,2.29
2018-12-11T02:11:33.814Z,2.25
2018-12-11T02:14:16.418Z,2.20
2018-12-11T02:16:58.801Z,2.33
2018-12-11T02:19:41.251Z,2.27
2018-12-11T02:22:23.612Z,2.22
2018-12-11T02:25:06.814Z,2.29
2018-12-11T02:27:48.436Z,2.30
2018-12-11T02:30:30.232Z,2.26
2018-12-11T02:33:12.535Z,2.22
2018-12-11T02:35:54.461Z,2.28
2018-12-11T02:38:36.825Z,2.27
2018-12-11T02:41:19.270Z,2.24
2018-12-11T02:44:01.943Z,2.25
2018-12-11T02:46:44.074Z,2.29
2018-12-11T02:49:25.426Z,2.27
2018-12-11T02:52:07.211Z,2.28
2018-12-11T02:54:49.438Z,2.28
2018-12-11T02:57:30.909Z,2.29
2018-12-11T03:00:12.412Z,2.33
2018-12-11T03:02:54.144Z,2.27
2018-12-11T03:05:37.021Z,2.39
2018-12-11T03:08:19.858Z,2.33
2018-12-11T03:11:01.433Z,2.32
2018-12-11T03:13:43.435Z,2.27
2018-12-11T03:16:26.817Z,2.32
2018-12-11T03:19:09.043Z,2.36
2018-12-11T03:21:51.038Z,2.34
2018-12-11T03:24:34.252Z,2.33
2018-12-11T03:27:16.665Z,2.29
2018-12-11T03:29:58.710Z,2.24
2018-12-11T03:32:41.305Z,2.19
2018-12-11T03:35:23.511Z,2.15
2018-12-11T03:38:05.303Z,2.17
2018-12-11T03:40:48.013Z,2.13
2018-12-11T03:43:29.941Z,2.10
2018-12-11T03:46:11.697Z,2.04
2018-12-11T03:48:53.375Z,2.04
2018-12-11T03:51:36.167Z,2.03
2018-12-11T03:54:18.002Z,2.17
2018-12-11T03:57:00.089Z,2.25
2018-12-11T03:59:42.185Z,2.25
2018-12-11T04:02:24.517Z,2.28
2018-12-11T04:05:06.499Z,2.32
2018-12-11T04:07:48.903Z,2.40
2018-12-11T04:10:31.101Z,2.44
2018-12-11T04:13:12.968Z,2.50
2018-12-11T04:15:55.494Z,2.50
2018-12-11T04:18:37.864Z,2.40
2018-12-11T04:21:20.441Z,2.29
2018-12-11T04:24:03.033Z,2.33
2018-12-11T04:26:45.272Z,2.35
2018-12-11T04:29:27.058Z,2.33
2018-12-11T04:32:09.538Z,2.28
2018-12-11T04:34:51.941Z,2.24
2018-12-11T04:37:33.352Z,2.18
2018-12-11T04:40:15.242Z,2.15
2018-12-11T04:42:57.446Z,2.13
2018-12-11T04:45:39.298Z,2.15
2018-12-11T04:48:21.625Z,2.11
2018-12-11T04:51:03.969Z,2.05
2018-12-11T04:53:45.862Z,2.05
2018-12-11T04:56:28.149Z,2.02
2018-12-11T04:59:10.208Z,2.10
2018-12-11T05:01:52.710Z,2.11
2018-12-11T05:04:34.937Z,2.09
2018-12-11T05:07:16.942Z,2.03
2018-12-11T05:09:59.235Z,2.01
2018-12-11T05:12:41.458Z,2.05
2018-12-11T05:15:24.137Z,2.03
2018-12-11T05:18:06.344Z,2.06
2018-12-11T05:20:49.170Z,2.04
2018-12-11T05:23:31.364Z,2.09
2018-12-11T05:26:12.869Z,2.17
2018-12-11T05:28:54.470Z,2.24
2018-12-11T05:31:36.327Z,2.26
2018-12-11T05:34:18.957Z,2.33
2018-12-11T05:37:01.304Z,2.50
2018-12-11T05:39:43.590Z,2.45
2018-12-11T05:42:26.029Z,2.49
2018-12-11T05:45:08.385Z,2.50
2018-12-11T05:47:50.889Z,2.50
2018-12-11T05:50:32.527Z,2.49
2018-12-11T05:53:15.101Z,2.50
2018-12-11T05:55:57.517Z,2.45
2018-12-11T05:58:39.731Z,2.48
2018-12-11T06:01:21.313Z,2.54
2018-12-11T06:04:03.128Z,2.51
2018-12-11T06:06:45.334Z,2.50
2018-12-11T06:09:27.904Z,2.53
2018-12-11T06:12:10.123Z,2.55
2018-12-11T06:14:51.928Z,2.58
2018-12-11T06:17:33.500Z,2.61
2018-12-11T06:20:15.107Z,2.64
2018-12-11T06:22:56.793Z,2.59
2018-12-11T06:25:38.971Z,2.55
2018-12-11T06:28:21.356Z,2.47
2018-12-11T06:31:02.873Z,2.49
2018-12-11T06:33:44.765Z,2.48
2018-12-11T06:36:27.534Z,2.47
2018-12-11T06:39:10.580Z,2.46
2018-12-11T06:41:52.486Z,2.59
2018-12-11T06:44:34.638Z,2.64
2018-12-11T06:47:16.182Z,2.67
2018-12-11T06:49:58.068Z,2.69
2018-12-11T06:52:40.698Z,2.67
2018-12-11T06:55:31.879Z,2.65
2018-12-11T06:58:52.937Z,2.65
2018-12-11T07:01:35.529Z,2.59
2018-12-11T07:04:18.141Z,2.57
2018-12-11T07:07:00.370Z,2.50
2018-12-11T07:09:42.222Z,2.49
2018-12-11T07:12:27.484Z,2.51
2018-12-11T07:15:09.689Z,2.50
2018-12-11T07:17:51.795Z,2.32
2018-12-11T07:20:33.381Z,2.26
2018-12-11T07:23:16.300Z,2.18
2018-12-11T07:25:58.217Z,2.21
2018-12-11T07:28:39.998Z,2.30
2018-12-11T07:31:22.407Z,2.24
2018-12-11T07:34:04.015Z,2.28
2018-12-11T07:36:45.878Z,2.23
2018-12-11T07:39:28.109Z,2.23
2018-12-11T07:42:09.475Z,2.31
2018-12-11T07:44:52.033Z,2.34
2018-12-11T07:47:34.201Z,2.39
2018-12-11T07:50:17.290Z,2.36
2018-12-11T07:52:59.498Z,2.35
2018-12-11T07:55:41.934Z,2.35
2018-12-11T07:58:24.110Z,2.34
2018-12-11T08:01:05.721Z,2.37
2018-12-11T08:03:47.189Z,2.36
2018-12-11T08:06:28.823Z,2.33
2018-12-11T08:09:10.587Z,2.29
2018-12-11T08:11:53.194Z,2.32
2018-12-11T08:14:36.529Z,2.39
2018-12-11T08:17:18.806Z,2.56
2018-12-11T08:20:00.317Z,2.59
2018-12-11T08:22:41.810Z,2.59
2018-12-11T08:25:23.678Z,2.45
2018-12-11T08:28:06.897Z,2.46
2018-12-11T08:30:48.713Z,2.83
2018-12-11T08:33:30.793Z,2.86
2018-12-11T08:36:12.793Z,3.28
2018-12-11T08:38:54.262Z,3.70
2018-12-11T08:41:35.997Z,3.51
2018-12-11T08:44:17.899Z,3.76
2018-12-11T08:47:00.308Z,3.72
2018-12-11T08:49:42.518Z,3.40
2018-12-11T08:52:24.914Z,3.03
2018-12-11T08:55:07.084Z,3.43
2018-12-11T08:57:49.113Z,3.72
2018-12-11T09:00:30.712Z,3.98
2018-12-11T09:03:14.882Z,3.61
2018-12-11T09:05:57.312Z,3.65
2018-12-11T09:08:39.442Z,3.51
2018-12-11T09:11:21.984Z,3.64
2018-12-11T09:14:05.864Z,3.55
2018-12-11T09:16:48.305Z,3.39
2018-12-11T09:19:38.760Z,3.39
2018-12-11T09:22:25.261Z,3.44
2018-12-11T09:25:07.733Z,3.58
2018-12-11T09:27:49.962Z,3.90
2018-12-11T09:30:31.445Z,4.05
2018-12-11T09:33:13.402Z,3.92
2018-12-11T09:35:55.933Z,3.64
2018-12-11T09:38:38.221Z,3.55
2018-12-11T09:41:20.430Z,3.61
2018-12-11T09:44:02.648Z,3.73
2018-12-11T09:46:49.927Z,4.32
2018-12-11T09:49:31.442Z,4.69
2018-12-11T09:52:12.821Z,4.18
2018-12-11T09:54:54.788Z,3.87
2018-12-11T09:57:37.209Z,4.25
2018-12-11T10:00:25.820Z,4.59
2018-12-11T10:03:04.055Z,5.20
2018-12-11T10:05:45.569Z,6.13
2018-12-11T10:08:27.281Z,5.74
2018-12-11T10:11:09.423Z,5.84
2018-12-11T10:13:51.353Z,5.56
2018-12-11T10:16:33.126Z,6.11
2018-12-11T10:19:15.553Z,5.88
2018-12-11T10:21:58.166Z,6.42
2018-12-11T10:24:40.344Z,6.29
2018-12-11T10:27:22.764Z,7.43
2018-12-11T10:30:06.018Z,5.26
2018-12-11T10:32:51.282Z,5.74
2018-12-11T10:35:33.497Z,6.46
2018-12-11T10:38:15.229Z,7.35
2018-12-11T10:40:57.863Z,6.15
2018-12-11T10:43:40.370Z,6.24
2018-12-11T10:46:22.994Z,7.41
2018-12-11T10:49:05.113Z,7.68
2018-12-11T10:51:47.804Z,6.53
2018-12-11T10:54:30.139Z,5.58
2018-12-11T10:57:12.521Z,6.43
2018-12-11T10:59:53.891Z,6.34
2018-12-11T11:02:40.189Z,7.18
2018-12-11T11:05:22.226Z,7.45
2018-12-11T11:08:04.814Z,6.44
2018-12-11T11:10:46.834Z,5.79
2018-12-11T11:13:28.525Z,5.47
2018-12-11T11:16:15.545Z,5.31
2018-12-11T11:18:57.605Z,5.46
2018-12-11T11:21:41.050Z,5.44
2018-12-11T11:24:23.577Z,5.54
2018-12-11T11:27:06.230Z,5.38
2018-12-11T11:29:48.872Z,5.76
2018-12-11T11:32:31.477Z,5.60
2018-12-11T11:35:14.199Z,5.39
2018-12-11T11:37:55.925Z,5.56
2018-12-11T11:40:37.697Z,5.37
2018-12-11T11:43:20.455Z,5.26
2018-12-11T11:46:05.230Z,5.27
2018-12-11T11:48:48.307Z,5.30
2018-12-11T11:51:30.326Z,5.28
2018-12-11T11:54:12.430Z,5.19
2018-12-11T11:56:54.617Z,5.17
2018-12-11T11:59:36.044Z,5.45
2018-12-11T12:02:17.854Z,5.45
2018-12-11T12:04:59.951Z,5.45
2018-12-11T12:07:43.431Z,5.44
2018-12-11T12:10:25.671Z,5.71
2018-12-11T12:13:10.885Z,5.57
2018-12-11T12:15:53.383Z,5.62
2018-12-11T12:18:36.266Z,5.72
2018-12-11T12:21:18.869Z,6.01
2018-12-11T12:24:02.792Z,6.08
2018-12-11T12:26:47.330Z,6.10
2018-12-11T12:29:28.934Z,6.21
2018-12-11T12:32:10.850Z,6.52
2018-12-11T12:34:53.844Z,6.82
2018-12-11T12:37:36.141Z,7.06
2018-12-11T12:40:18.645Z,7.23
2018-12-11T12:43:01.296Z,6.54
2018-12-11T12:45:44.554Z,6.56
2018-12-11T12:48:27.744Z,6.39
2018-12-11T12:51:09.436Z,6.15
2018-12-11T12:53:51.068Z,6.16
2018-12-11T12:56:35.696Z,6.11
2018-12-11T12:59:17.286Z,6.01
2018-12-11T13:01:58.850Z,5.91
2018-12-11T13:04:41.086Z,5.78
2018-12-11T13:07:23.180Z,5.99
2018-12-11T13:10:06.491Z,5.82
2018-12-11T13:12:49.791Z,5.78
2018-12-11T13:15:31.558Z,5.81
2018-12-11T13:18:14.251Z,5.82
2018-12-11T13:20:57.462Z,5.82
2018-12-11T13:23:41.617Z,5.88
2018-12-11T13:26:24.753Z,6.08
2018-12-11T13:29:10.287Z,6.27
2018-12-11T13:31:52.356Z,6.38
2018-12-11T13:34:35.111Z,6.18
2018-12-11T13:37:17.078Z,6.22
2018-12-11T13:39:59.897Z,6.18
2018-12-11T13:42:44.845Z,6.02
2018-12-11T13:45:26.585Z,5.96
2018-12-11T13:48:10.230Z,5.80
2018-12-11T13:50:52.857Z,5.91
2018-12-11T13:53:35.183Z,5.94
2018-12-11T13:56:17.548Z,5.78
2018-12-11T13:59:01.095Z,5.89
2018-12-11T14:01:43.420Z,5.63
2018-12-11T14:04:25.765Z,5.56
2018-12-11T14:07:07.378Z,5.47
2018-12-11T14:09:49.101Z,5.65
2018-12-11T14:12:30.774Z,5.74
2018-12-11T14:15:13.608Z,5.81
2018-12-11T14:17:56.076Z,6.00
2018-12-11T14:20:38.773Z,5.73
2018-12-11T14:23:20.460Z,5.66
2018-12-11T14:26:04.131Z,5.77
2018-12-11T14:28:48.403Z,5.74
2018-12-11T14:31:31.134Z,5.70
2018-12-11T14:34:13.450Z,5.76
2018-12-11T14:36:55.286Z,5.67
2018-12-11T14:39:37.601Z,5.67
2018-12-11T14:42:19.990Z,5.61
2018-12-11T14:45:02.457Z,5.65
2018-12-11T14:47:44.930Z,5.66
2018-12-11T14:50:26.945Z,5.60
2018-12-11T14:53:09.056Z,5.63
2018-12-11T14:55:52.651Z,5.65
2018-12-11T14:58:34.542Z,5.64
2018-12-11T15:01:16.842Z,5.67
2018-12-11T15:03:58.854Z,5.68
2018-12-11T15:06:40.674Z,5.69
2018-12-11T15:09:28.539Z,5.61
2018-12-11T15:12:10.388Z,5.67
2018-12-11T15:14:51.680Z,5.69
2018-12-11T15:17:33.746Z,5.67
2018-12-11T15:20:16.405Z,5.72
2018-12-11T15:22:58.969Z,5.63
2018-12-11T15:25:41.190Z,5.67
2018-12-11T15:28:23.354Z,5.66
2018-12-11T15:31:11.092Z,5.53
2018-12-11T15:33:57.358Z,5.69
2018-12-11T15:36:50.338Z,5.77
2018-12-11T15:39:35.725Z,5.55
2018-12-11T15:42:15.706Z,5.59
2018-12-11T15:44:57.481Z,5.67
2018-12-11T15:47:39.046Z,5.62
2018-12-11T15:50:20.456Z,5.53
2018-12-11T15:53:02.419Z,5.59
2018-12-11T15:55:45.258Z,5.62
2018-12-11T15:58:27.773Z,5.49
2018-12-11T16:01:09.794Z,5.61
2018-12-11T16:03:52.224Z,5.60
2018-12-11T16:06:33.850Z,5.47
2018-12-11T16:09:16.090Z,5.54
2018-12-11T16:11:58.130Z,5.39
2018-12-11T16:14:40.411Z,5.46
2018-12-11T16:17:23.642Z,5.47
2018-12-11T16:20:06.593Z,5.47
2018-12-11T16:22:51.511Z,5.44
2018-12-11T16:25:37.480Z,5.33
2018-12-11T16:28:19.966Z,5.27
2018-12-11T16:31:02.237Z,5.29
2018-12-11T16:33:44.298Z,5.35
2018-12-11T16:36:26.437Z,5.33
2018-12-11T16:39:08.854Z,5.39
2018-12-11T16:41:50.931Z,5.29
2018-12-11T16:44:32.793Z,5.27
2018-12-11T16:47:14.806Z,5.26
2018-12-11T16:49:57.460Z,5.30
2018-12-11T16:52:38.931Z,5.20
2018-12-11T16:55:20.477Z,5.20
2018-12-11T16:58:02.178Z,5.28
2018-12-11T17:00:44.149Z,5.31
2018-12-11T17:03:26.114Z,5.28
2018-12-11T17:06:08.766Z,5.27
2018-12-11T17:09:01.599Z,5.33
2018-12-11T17:11:52.958Z,5.25
2018-12-11T17:14:34.975Z,5.26
2018-12-11T17:17:16.979Z,5.36
2018-12-11T17:19:59.052Z,5.29
2018-12-11T17:22:41.172Z,5.22
2018-12-11T17:25:25.149Z,5.25
2018-12-11T17:28:08.482Z,5.25
2018-12-11T17:30:51.387Z,5.14
2018-12-11T17:33:33.434Z,5.26
2018-12-11T17:36:16.370Z,5.41
2018-12-11T17:38:58.891Z,5.45
2018-12-11T17:41:41.456Z,5.47
2018-12-11T17:44:23.533Z,5.55
2018-12-11T17:47:05.125Z,5.48
2018-12-11T17:49:46.757Z,5.39
2018-12-11T17:52:29.268Z,5.41
2018-12-11T17:55:11.911Z,5.53
2018-12-11T17:57:54.099Z,5.53
2018-12-11T18:00:38.356Z,5.42
2018-12-11T18:03:20.001Z,5.41
2018-12-11T18:06:01.430Z,5.42
2018-12-11T18:08:42.993Z,5.43
2018-12-11T18:11:25.726Z,5.30
2018-12-11T18:14:08.615Z,5.20
2018-12-11T18:16:51.338Z,5.15
2018-12-11T18:19:33.682Z,5.09
2018-12-11T18:22:17.046Z,4.99
2018-12-11T18:25:00.588Z,4.92
2018-12-11T18:27:43.117Z,4.84
2018-12-11T18:30:24.707Z,4.85
2018-12-11T18:33:06.502Z,4.81
2018-12-11T18:35:49.407Z,4.82
2018-12-11T18:38:31.109Z,4.83
2018-12-11T18:41:12.619Z,4.73
2018-12-11T18:43:55.127Z,4.70
2018-12-11T18:46:38.742Z,4.61
2018-12-11T18:49:21.062Z,4.55
2018-12-11T18:52:04.867Z,4.62
2018-12-11T18:54:47.944Z,4.52
2018-12-11T18:57:29.426Z,4.48
2018-12-11T19:00:11.376Z,4.31
2018-12-11T19:02:54.001Z,4.26
2018-12-11T19:05:36.307Z,4.30
2018-12-11T19:08:18.695Z,4.32
2018-12-11T19:11:01.158Z,4.31
2018-12-11T19:13:42.828Z,4.27
2018-12-11T19:16:24.342Z,4.31
2018-12-11T19:19:06.006Z,4.31
2018-12-11T19:21:47.497Z,4.25
2018-12-11T19:24:34.839Z,4.20
2018-12-11T19:27:16.887Z,4.15
2018-12-11T19:29:59.226Z,4.02
2018-12-11T19:32:41.554Z,3.77
2018-12-11T19:35:24.268Z,3.61
2018-12-11T19:38:11.229Z,3.49
2018-12-11T19:40:57.869Z,3.45
2018-12-11T19:43:39.529Z,3.37
2018-12-11T19:46:21.941Z,3.37
2018-12-11T19:49:05.348Z,3.28
2018-12-11T19:51:47.195Z,3.27
2018-12-11T19:54:31.726Z,3.28
2018-12-11T19:57:13.881Z,3.30
2018-12-11T19:59:55.822Z,3.27
2018-12-11T20:02:38.348Z,3.14
2018-12-11T20:05:20.854Z,3.23
2018-12-11T20:08:02.819Z,3.25
2018-12-11T20:10:47.505Z,3.23
2018-12-11T20:13:30.199Z,3.30
2018-12-11T20:16:15.925Z,3.31
2018-12-11T20:18:58.838Z,3.40
2018-12-11T20:21:41.645Z,3.39
2018-12-11T20:24:23.918Z,3.40
2018-12-11T20:27:06.146Z,3.39
2018-12-11T20:29:48.210Z,3.33
2018-12-11T20:32:30.570Z,3.26
2018-12-11T20:35:12.633Z,3.17
2018-12-11T20:37:54.754Z,3.24
2018-12-11T20:40:36.967Z,3.24
2018-12-11T20:43:24.020Z,3.19
2018-12-11T20:46:07.173Z,3.11
2018-12-11T20:48:48.721Z,3.10
2018-12-11T20:51:30.371Z,3.04
2018-12-11T20:54:13.105Z,3.10
2018-12-11T20:56:55.710Z,3.18
2018-12-11T20:59:37.919Z,3.26
2018-12-11T21:02:19.737Z,3.08
2018-12-11T21:05:02.682Z,3.10
2018-12-11T21:07:44.715Z,3.21
2018-12-11T21:10:26.997Z,3.20
2018-12-11T21:13:08.536Z,3.22
2018-12-11T21:15:50.502Z,3.25
2018-12-11T21:18:33.248Z,3.11
2018-12-11T21:28:26.950Z,3.04
2018-12-11T21:31:09.676Z,3.17
2018-12-11T21:33:52.236Z,3.30
2018-12-11T21:36:34.924Z,3.26
2018-12-11T21:39:17.175Z,3.32
2018-12-11T21:41:59.686Z,3.39
2018-12-11T21:44:43.374Z,3.29
2018-12-11T21:47:26.013Z,3.20
2018-12-11T21:50:08.654Z,3.24
2018-12-11T21:52:50.558Z,3.18
2018-12-11T21:55:33.345Z,3.04
2018-12-11T21:58:15.743Z,3.17
2018-12-11T22:00:58.557Z,3.29
2018-12-11T22:03:41.485Z,3.20
2018-12-11T22:06:23.934Z,3.11
2018-12-11T22:09:07.426Z,3.14
2018-12-11T22:11:49.736Z,3.11
2018-12-11T22:14:32.452Z,3.06
2018-12-11T22:17:15.182Z,3.03
2018-12-11T22:19:57.704Z,3.00
2018-12-11T22:22:39.805Z,2.97
2018-12-11T22:25:22.486Z,2.92
2018-12-11T22:28:04.706Z,2.90
2018-12-11T22:30:46.598Z,2.88
2018-12-11T22:33:29.297Z,2.84
2018-12-11T22:36:11.411Z,2.86
2018-12-11T22:38:54.664Z,2.82
2018-12-11T22:41:37.167Z,2.71
2018-12-11T22:44:20.123Z,2.81
2018-12-11T22:47:02.617Z,2.89
2018-12-11T22:49:45.689Z,2.75
2018-12-11T22:52:27.608Z,2.60
2018-12-11T22:55:11.344Z,2.55
2018-12-11T22:57:53.835Z,2.53
2018-12-11T23:00:37.164Z,2.50
2018-12-11T23:03:19.464Z,2.51
2018-12-11T23:06:02.491Z,2.49
2018-12-11T23:08:44.584Z,2.49
2018-12-11T23:11:27.510Z,2.60
2018-12-11T23:14:10.445Z,2.64
2018-12-11T23:16:54.855Z,2.80
2018-12-11T23:19:36.998Z,2.81
2018-12-11T23:22:19.040Z,2.88
2018-12-11T23:25:01.199Z,2.79
2018-12-11T23:27:43.077Z,2.81
2018-12-11T23:30:26.228Z,2.83
2018-12-11T23:33:07.981Z,2.79
2018-12-11T23:35:49.501Z,2.86
2018-12-11T23:38:30.846Z,2.93
2018-12-11T23:41:13.492Z,2.71
2018-12-11T23:43:55.381Z,3.00
2018-12-11T23:46:37.509Z,2.85
2018-12-11T23:49:19.635Z,3.01
2018-12-11T23:52:02.309Z,3.03
2018-12-11T23:54:44.622Z,3.27
2018-12-11T23:57:27.180Z,3.19
